sensor_id;sensor_type;location;lat;lon;timestamp;P1;durP1;ratioP1;P2;durP2;ratioP2
57303;SDS011;43150;50.986;18.208;2023-08-24T00:00:45;7.20;;;5.10;;
57303;SDS011;43150;50.986;18.208;2023-08-24T00:03:11;7.50;;;5.30;;
57303;SDS011;43150;50.986;18.208;2023-08-24T00:05:37;7.60;;;5.50;;
57303;SDS011;43150;50.986;18.208;2023-08-24T00:08:03;6.50;;;5.30;;
57303;SDS011;43150;50.986;18.208;2023-08-24T00:10:29;6.60;;;5.70;;
57303;SDS011;43150;50.986;18.208;2023-08-24T00:12:55;8.30;;;5.50;;
57303;SDS011;43150;50.986;18.208;2023-08-24T00:15:21;8.30;;;6.10;;
57303;SDS011;43150;50.986;18.208;2023-08-24T00:17:46;7.40;;;6.40;;
57303;SDS011;43150;50.986;18.208;2023-08-24T00:20:12;6.30;;;5.70;;
57303;SDS011;43150;50.986;18.208;2023-08-24T00:22:39;5.30;;;3.60;;
57303;SDS011;43150;50.986;18.208;2023-08-24T00:25:06;6.60;;;5.10;;
57303;SDS011;43150;50.986;18.208;2023-08-24T00:27:32;6.70;;;5.40;;
57303;SDS011;43150;50.986;18.208;2023-08-24T00:29:57;6.90;;;5.20;;
57303;SDS011;43150;50.986;18.208;2023-08-24T00:32:23;6.50;;;5.20;;
57303;SDS011;43150;50.986;18.208;2023-08-24T00:34:49;6.00;;;5.40;;
57303;SDS011;43150;50.986;18.208;2023-08-24T00:37:16;6.30;;;5.40;;
57303;SDS011;43150;50.986;18.208;2023-08-24T00:39:42;7.30;;;5.60;;
57303;SDS011;43150;50.986;18.208;2023-08-24T00:42:07;8.30;;;6.90;;
57303;SDS011;43150;50.986;18.208;2023-08-24T00:44:34;7.40;;;5.60;;
57303;SDS011;43150;50.986;18.208;2023-08-24T00:46:59;7.30;;;5.50;;
57303;SDS011;43150;50.986;18.208;2023-08-24T00:49:25;6.40;;;5.50;;
57303;SDS011;43150;50.986;18.208;2023-08-24T00:51:51;5.90;;;5.20;;
57303;SDS011;43150;50.986;18.208;2023-08-24T00:54:17;8.60;;;6.10;;
57303;SDS011;43150;50.986;18.208;2023-08-24T00:56:43;7.10;;;6.30;;
57303;SDS011;43150;50.986;18.208;2023-08-24T00:59:09;7.70;;;5.60;;
57303;SDS011;43150;50.986;18.208;2023-08-24T01:01:36;6.40;;;5.50;;
57303;SDS011;43150;50.986;18.208;2023-08-24T01:04:02;5.10;;;3.90;;
57303;SDS011;43150;50.986;18.208;2023-08-24T01:06:28;6.50;;;5.30;;
57303;SDS011;43150;50.986;18.208;2023-08-24T01:08:54;6.60;;;5.70;;
57303;SDS011;43150;50.986;18.208;2023-08-24T01:11:38;7.30;;;6.10;;
57303;SDS011;43150;50.986;18.208;2023-08-24T01:14:08;6.60;;;5.50;;
57303;SDS011;43150;50.986;18.208;2023-08-24T01:16:35;8.30;;;6.80;;
57303;SDS011;43150;50.986;18.208;2023-08-24T01:19:06;7.60;;;6.70;;
57303;SDS011;43150;50.986;18.208;2023-08-24T01:21:36;7.90;;;6.60;;
57303;SDS011;43150;50.986;18.208;2023-08-24T01:24:17;9.90;;;6.60;;
57303;SDS011;43150;50.986;18.208;2023-08-24T01:26:45;8.70;;;6.80;;
57303;SDS011;43150;50.986;18.208;2023-08-24T01:29:11;8.20;;;6.40;;
57303;SDS011;43150;50.986;18.208;2023-08-24T01:31:36;8.00;;;6.80;;
57303;SDS011;43150;50.986;18.208;2023-08-24T01:34:03;7.70;;;6.50;;
57303;SDS011;43150;50.986;18.208;2023-08-24T01:36:28;8.30;;;6.50;;
57303;SDS011;43150;50.986;18.208;2023-08-24T01:39:11;8.40;;;7.00;;
57303;SDS011;43150;50.986;18.208;2023-08-24T01:41:38;7.60;;;6.70;;
57303;SDS011;43150;50.986;18.208;2023-08-24T01:44:08;8.00;;;7.20;;
57303;SDS011;43150;50.986;18.208;2023-08-24T01:46:35;9.00;;;6.70;;
57303;SDS011;43150;50.986;18.208;2023-08-24T01:49:01;9.00;;;6.90;;
57303;SDS011;43150;50.986;18.208;2023-08-24T01:51:27;9.50;;;6.70;;
57303;SDS011;43150;50.986;18.208;2023-08-24T01:53:53;11.20;;;6.70;;
57303;SDS011;43150;50.986;18.208;2023-08-24T01:56:19;7.80;;;4.40;;
57303;SDS011;43150;50.986;18.208;2023-08-24T01:58:45;6.30;;;5.60;;
57303;SDS011;43150;50.986;18.208;2023-08-24T02:01:10;8.20;;;5.80;;
57303;SDS011;43150;50.986;18.208;2023-08-24T02:03:37;7.00;;;5.30;;
57303;SDS011;43150;50.986;18.208;2023-08-24T02:06:04;7.40;;;6.30;;
57303;SDS011;43150;50.986;18.208;2023-08-24T02:08:32;6.40;;;5.50;;
57303;SDS011;43150;50.986;18.208;2023-08-24T02:10:58;7.50;;;5.80;;
57303;SDS011;43150;50.986;18.208;2023-08-24T02:13:24;6.30;;;5.30;;
57303;SDS011;43150;50.986;18.208;2023-08-24T02:15:49;6.20;;;5.20;;
57303;SDS011;43150;50.986;18.208;2023-08-24T02:18:15;6.40;;;5.10;;
57303;SDS011;43150;50.986;18.208;2023-08-24T02:20:41;6.00;;;4.80;;
57303;SDS011;43150;50.986;18.208;2023-08-24T02:23:06;6.80;;;5.20;;
57303;SDS011;43150;50.986;18.208;2023-08-24T02:25:32;7.70;;;5.30;;
57303;SDS011;43150;50.986;18.208;2023-08-24T02:27:58;7.10;;;5.10;;
57303;SDS011;43150;50.986;18.208;2023-08-24T02:30:24;6.30;;;5.10;;
57303;SDS011;43150;50.986;18.208;2023-08-24T02:32:50;6.20;;;5.20;;
57303;SDS011;43150;50.986;18.208;2023-08-24T02:35:16;8.20;;;5.20;;
57303;SDS011;43150;50.986;18.208;2023-08-24T02:37:43;6.50;;;5.70;;
57303;SDS011;43150;50.986;18.208;2023-08-24T02:40:09;5.00;;;3.60;;
57303;SDS011;43150;50.986;18.208;2023-08-24T02:42:34;6.50;;;5.50;;
57303;SDS011;43150;50.986;18.208;2023-08-24T02:45:00;7.60;;;5.60;;
57303;SDS011;43150;50.986;18.208;2023-08-24T02:47:26;5.80;;;5.20;;
57303;SDS011;43150;50.986;18.208;2023-08-24T02:49:52;7.70;;;5.70;;
57303;SDS011;43150;50.986;18.208;2023-08-24T02:52:17;9.10;;;5.90;;
57303;SDS011;43150;50.986;18.208;2023-08-24T02:54:43;6.60;;;5.70;;
57303;SDS011;43150;50.986;18.208;2023-08-24T02:57:08;7.90;;;6.40;;
57303;SDS011;43150;50.986;18.208;2023-08-24T02:59:34;7.90;;;6.20;;
57303;SDS011;43150;50.986;18.208;2023-08-24T03:02:00;8.70;;;6.10;;
57303;SDS011;43150;50.986;18.208;2023-08-24T03:04:26;6.50;;;5.70;;
57303;SDS011;43150;50.986;18.208;2023-08-24T03:06:52;6.80;;;6.10;;
57303;SDS011;43150;50.986;18.208;2023-08-24T03:09:17;7.30;;;6.20;;
57303;SDS011;43150;50.986;18.208;2023-08-24T03:11:43;6.50;;;4.50;;
57303;SDS011;43150;50.986;18.208;2023-08-24T03:14:08;6.80;;;6.10;;
57303;SDS011;43150;50.986;18.208;2023-08-24T03:16:34;7.00;;;5.60;;
57303;SDS011;43150;50.986;18.208;2023-08-24T03:19:00;6.20;;;3.70;;
57303;SDS011;43150;50.986;18.208;2023-08-24T03:21:26;7.70;;;4.50;;
57303;SDS011;43150;50.986;18.208;2023-08-24T03:23:51;7.70;;;6.20;;
57303;SDS011;43150;50.986;18.208;2023-08-24T03:26:17;6.90;;;5.40;;
57303;SDS011;43150;50.986;18.208;2023-08-24T03:28:46;8.50;;;5.70;;
57303;SDS011;43150;50.986;18.208;2023-08-24T03:31:11;7.50;;;6.00;;
57303;SDS011;43150;50.986;18.208;2023-08-24T03:33:36;7.50;;;6.20;;
57303;SDS011;43150;50.986;18.208;2023-08-24T03:36:02;7.30;;;5.80;;
57303;SDS011;43150;50.986;18.208;2023-08-24T03:38:28;9.00;;;6.40;;
57303;SDS011;43150;50.986;18.208;2023-08-24T03:41:03;6.80;;;4.00;;
57303;SDS011;43150;50.986;18.208;2023-08-24T03:43:34;8.40;;;5.80;;
57303;SDS011;43150;50.986;18.208;2023-08-24T03:46:00;7.20;;;6.20;;
57303;SDS011;43150;50.986;18.208;2023-08-24T03:48:26;7.90;;;6.30;;
57303;SDS011;43150;50.986;18.208;2023-08-24T03:50:55;8.40;;;6.60;;
57303;SDS011;43150;50.986;18.208;2023-08-24T03:53:21;9.90;;;6.20;;
57303;SDS011;43150;50.986;18.208;2023-08-24T03:55:48;7.10;;;6.00;;
57303;SDS011;43150;50.986;18.208;2023-08-24T03:58:16;5.80;;;3.90;;
57303;SDS011;43150;50.986;18.208;2023-08-24T04:00:42;7.40;;;3.70;;
57303;SDS011;43150;50.986;18.208;2023-08-24T04:03:08;8.80;;;6.50;;
57303;SDS011;43150;50.986;18.208;2023-08-24T04:05:34;9.10;;;6.60;;
57303;SDS011;43150;50.986;18.208;2023-08-24T04:08:00;8.90;;;6.40;;
57303;SDS011;43150;50.986;18.208;2023-08-24T04:10:26;9.60;;;6.20;;
57303;SDS011;43150;50.986;18.208;2023-08-24T04:12:52;8.50;;;5.90;;
57303;SDS011;43150;50.986;18.208;2023-08-24T04:15:18;7.50;;;6.10;;
57303;SDS011;43150;50.986;18.208;2023-08-24T04:17:43;6.20;;;5.40;;
57303;SDS011;43150;50.986;18.208;2023-08-24T04:20:09;8.20;;;5.30;;
57303;SDS011;43150;50.986;18.208;2023-08-24T04:22:35;6.40;;;5.10;;
57303;SDS011;43150;50.986;18.208;2023-08-24T04:25:01;8.40;;;6.00;;
57303;SDS011;43150;50.986;18.208;2023-08-24T04:27:27;6.00;;;5.40;;
57303;SDS011;43150;50.986;18.208;2023-08-24T04:29:53;8.10;;;5.80;;
57303;SDS011;43150;50.986;18.208;2023-08-24T04:32:18;7.50;;;6.10;;
57303;SDS011;43150;50.986;18.208;2023-08-24T04:34:44;10.50;;;6.40;;
57303;SDS011;43150;50.986;18.208;2023-08-24T04:37:10;8.70;;;6.40;;
57303;SDS011;43150;50.986;18.208;2023-08-24T04:39:35;7.30;;;6.10;;
57303;SDS011;43150;50.986;18.208;2023-08-24T04:42:01;7.60;;;6.10;;
57303;SDS011;43150;50.986;18.208;2023-08-24T04:44:27;9.70;;;6.40;;
57303;SDS011;43150;50.986;18.208;2023-08-24T04:46:54;9.00;;;6.10;;
57303;SDS011;43150;50.986;18.208;2023-08-24T04:49:20;8.30;;;6.40;;
57303;SDS011;43150;50.986;18.208;2023-08-24T04:51:45;9.50;;;6.30;;
57303;SDS011;43150;50.986;18.208;2023-08-24T04:54:11;10.20;;;6.30;;
57303;SDS011;43150;50.986;18.208;2023-08-24T04:56:36;10.10;;;5.80;;
57303;SDS011;43150;50.986;18.208;2023-08-24T04:59:02;7.30;;;6.30;;
57303;SDS011;43150;50.986;18.208;2023-08-24T05:01:28;10.10;;;6.60;;
57303;SDS011;43150;50.986;18.208;2023-08-24T05:03:56;10.80;;;6.70;;
57303;SDS011;43150;50.986;18.208;2023-08-24T05:06:22;11.40;;;6.90;;
57303;SDS011;43150;50.986;18.208;2023-08-24T05:08:47;13.90;;;9.60;;
57303;SDS011;43150;50.986;18.208;2023-08-24T05:11:13;16.90;;;14.20;;
57303;SDS011;43150;50.986;18.208;2023-08-24T05:13:40;14.20;;;12.60;;
57303;SDS011;43150;50.986;18.208;2023-08-24T05:16:06;17.20;;;12.30;;
57303;SDS011;43150;50.986;18.208;2023-08-24T05:18:31;15.40;;;10.10;;
57303;SDS011;43150;50.986;18.208;2023-08-24T05:20:57;15.30;;;10.30;;
57303;SDS011;43150;50.986;18.208;2023-08-24T05:23:22;12.90;;;9.50;;
57303;SDS011;43150;50.986;18.208;2023-08-24T05:25:48;10.50;;;8.20;;
57303;SDS011;43150;50.986;18.208;2023-08-24T05:28:13;10.20;;;7.60;;
57303;SDS011;43150;50.986;18.208;2023-08-24T05:30:39;10.60;;;6.30;;
57303;SDS011;43150;50.986;18.208;2023-08-24T05:33:04;8.70;;;6.20;;
57303;SDS011;43150;50.986;18.208;2023-08-24T05:35:30;8.70;;;5.40;;
57303;SDS011;43150;50.986;18.208;2023-08-24T05:37:56;6.50;;;5.70;;
57303;SDS011;43150;50.986;18.208;2023-08-24T05:40:21;6.50;;;5.90;;
57303;SDS011;43150;50.986;18.208;2023-08-24T05:42:47;7.10;;;5.80;;
57303;SDS011;43150;50.986;18.208;2023-08-24T05:45:14;9.50;;;7.50;;
57303;SDS011;43150;50.986;18.208;2023-08-24T05:47:39;11.70;;;7.60;;
57303;SDS011;43150;50.986;18.208;2023-08-24T05:50:05;8.90;;;6.70;;
57303;SDS011;43150;50.986;18.208;2023-08-24T05:52:31;8.20;;;6.10;;
57303;SDS011;43150;50.986;18.208;2023-08-24T05:54:56;6.80;;;5.50;;
57303;SDS011;43150;50.986;18.208;2023-08-24T05:57:22;7.10;;;5.50;;
57303;SDS011;43150;50.986;18.208;2023-08-24T05:59:47;8.60;;;6.00;;
57303;SDS011;43150;50.986;18.208;2023-08-24T06:02:13;9.10;;;6.80;;
57303;SDS011;43150;50.986;18.208;2023-08-24T06:04:38;9.30;;;6.00;;
57303;SDS011;43150;50.986;18.208;2023-08-24T06:07:04;9.20;;;6.10;;
57303;SDS011;43150;50.986;18.208;2023-08-24T06:09:30;8.00;;;5.60;;
57303;SDS011;43150;50.986;18.208;2023-08-24T06:11:57;7.70;;;5.50;;
57303;SDS011;43150;50.986;18.208;2023-08-24T06:14:25;9.00;;;5.30;;
57303;SDS011;43150;50.986;18.208;2023-08-24T06:16:50;6.00;;;4.80;;
57303;SDS011;43150;50.986;18.208;2023-08-24T06:19:18;8.10;;;4.90;;
57303;SDS011;43150;50.986;18.208;2023-08-24T06:21:44;5.50;;;4.60;;
57303;SDS011;43150;50.986;18.208;2023-08-24T06:24:09;5.00;;;4.50;;
57303;SDS011;43150;50.986;18.208;2023-08-24T06:26:35;6.40;;;4.60;;
57303;SDS011;43150;50.986;18.208;2023-08-24T06:29:00;7.10;;;5.00;;
57303;SDS011;43150;50.986;18.208;2023-08-24T06:31:26;6.60;;;4.60;;
57303;SDS011;43150;50.986;18.208;2023-08-24T06:33:52;5.70;;;4.80;;
57303;SDS011;43150;50.986;18.208;2023-08-24T06:36:18;5.50;;;5.00;;
57303;SDS011;43150;50.986;18.208;2023-08-24T06:38:44;6.80;;;4.80;;
57303;SDS011;43150;50.986;18.208;2023-08-24T06:41:09;5.90;;;4.40;;
57303;SDS011;43150;50.986;18.208;2023-08-24T06:43:37;6.70;;;5.20;;
57303;SDS011;43150;50.986;18.208;2023-08-24T06:46:04;7.20;;;4.50;;
57303;SDS011;43150;50.986;18.208;2023-08-24T06:48:33;8.40;;;4.80;;
57303;SDS011;43150;50.986;18.208;2023-08-24T06:50:59;6.90;;;5.50;;
57303;SDS011;43150;50.986;18.208;2023-08-24T06:53:25;8.10;;;5.90;;
57303;SDS011;43150;50.986;18.208;2023-08-24T06:55:57;8.70;;;7.20;;
57303;SDS011;43150;50.986;18.208;2023-08-24T06:58:23;7.20;;;5.90;;
57303;SDS011;43150;50.986;18.208;2023-08-24T07:00:52;7.80;;;5.80;;
57303;SDS011;43150;50.986;18.208;2023-08-24T07:03:18;7.90;;;6.50;;
57303;SDS011;43150;50.986;18.208;2023-08-24T07:05:44;6.30;;;4.90;;
57303;SDS011;43150;50.986;18.208;2023-08-24T07:08:10;8.40;;;4.20;;
57303;SDS011;43150;50.986;18.208;2023-08-24T07:10:36;5.10;;;3.90;;
57303;SDS011;43150;50.986;18.208;2023-08-24T07:13:02;6.20;;;4.10;;
57303;SDS011;43150;50.986;18.208;2023-08-24T07:15:27;7.80;;;4.80;;
57303;SDS011;43150;50.986;18.208;2023-08-24T07:17:53;6.70;;;4.20;;
57303;SDS011;43150;50.986;18.208;2023-08-24T07:20:18;8.50;;;4.40;;
57303;SDS011;43150;50.986;18.208;2023-08-24T07:22:45;7.10;;;3.90;;
57303;SDS011;43150;50.986;18.208;2023-08-24T07:25:10;5.50;;;3.50;;
57303;SDS011;43150;50.986;18.208;2023-08-24T07:27:37;12.30;;;4.10;;
57303;SDS011;43150;50.986;18.208;2023-08-24T07:30:03;7.30;;;4.20;;
57303;SDS011;43150;50.986;18.208;2023-08-24T07:32:31;5.20;;;3.80;;
57303;SDS011;43150;50.986;18.208;2023-08-24T07:34:56;6.50;;;3.60;;
57303;SDS011;43150;50.986;18.208;2023-08-24T07:37:25;8.30;;;3.70;;
57303;SDS011;43150;50.986;18.208;2023-08-24T07:39:50;6.40;;;3.20;;
57303;SDS011;43150;50.986;18.208;2023-08-24T07:42:19;7.10;;;3.30;;
57303;SDS011;43150;50.986;18.208;2023-08-24T07:44:46;4.00;;;2.90;;
57303;SDS011;43150;50.986;18.208;2023-08-24T07:47:11;5.90;;;3.40;;
57303;SDS011;43150;50.986;18.208;2023-08-24T07:49:36;6.90;;;3.10;;
57303;SDS011;43150;50.986;18.208;2023-08-24T07:52:04;5.30;;;3.60;;
57303;SDS011;43150;50.986;18.208;2023-08-24T07:54:30;5.80;;;3.70;;
57303;SDS011;43150;50.986;18.208;2023-08-24T07:56:56;8.00;;;3.20;;
57303;SDS011;43150;50.986;18.208;2023-08-24T07:59:21;5.90;;;3.30;;
57303;SDS011;43150;50.986;18.208;2023-08-24T08:01:47;5.10;;;3.00;;
57303;SDS011;43150;50.986;18.208;2023-08-24T08:04:12;6.80;;;3.00;;
57303;SDS011;43150;50.986;18.208;2023-08-24T08:06:39;6.40;;;3.30;;
57303;SDS011;43150;50.986;18.208;2023-08-24T08:09:05;5.70;;;3.50;;
57303;SDS011;43150;50.986;18.208;2023-08-24T08:11:31;3.10;;;2.80;;
57303;SDS011;43150;50.986;18.208;2023-08-24T08:13:56;9.00;;;2.90;;
57303;SDS011;43150;50.986;18.208;2023-08-24T08:16:22;3.20;;;2.90;;
57303;SDS011;43150;50.986;18.208;2023-08-24T08:18:47;3.90;;;3.00;;
57303;SDS011;43150;50.986;18.208;2023-08-24T08:21:17;3.80;;;2.70;;
57303;SDS011;43150;50.986;18.208;2023-08-24T08:23:46;4.50;;;2.30;;
57303;SDS011;43150;50.986;18.208;2023-08-24T08:26:11;4.30;;;2.40;;
57303;SDS011;43150;50.986;18.208;2023-08-24T08:28:39;4.60;;;2.30;;
57303;SDS011;43150;50.986;18.208;2023-08-24T08:31:04;4.00;;;2.10;;
57303;SDS011;43150;50.986;18.208;2023-08-24T08:33:32;6.50;;;2.10;;
57303;SDS011;43150;50.986;18.208;2023-08-24T08:35:57;5.90;;;2.30;;
57303;SDS011;43150;50.986;18.208;2023-08-24T08:38:23;2.80;;;2.10;;
57303;SDS011;43150;50.986;18.208;2023-08-24T08:40:51;6.50;;;2.60;;
57303;SDS011;43150;50.986;18.208;2023-08-24T08:43:21;4.90;;;2.00;;
57303;SDS011;43150;50.986;18.208;2023-08-24T08:45:47;6.90;;;2.70;;
57303;SDS011;43150;50.986;18.208;2023-08-24T08:48:13;5.40;;;2.40;;
57303;SDS011;43150;50.986;18.208;2023-08-24T08:50:39;7.90;;;2.50;;
57303;SDS011;43150;50.986;18.208;2023-08-24T08:53:05;9.20;;;2.70;;
57303;SDS011;43150;50.986;18.208;2023-08-24T08:55:30;8.30;;;2.60;;
57303;SDS011;43150;50.986;18.208;2023-08-24T08:57:56;7.00;;;2.70;;
57303;SDS011;43150;50.986;18.208;2023-08-24T09:00:24;6.60;;;2.70;;
57303;SDS011;43150;50.986;18.208;2023-08-24T09:02:50;4.90;;;2.70;;
57303;SDS011;43150;50.986;18.208;2023-08-24T09:05:16;8.00;;;2.50;;
57303;SDS011;43150;50.986;18.208;2023-08-24T09:07:42;2.90;;;2.20;;
57303;SDS011;43150;50.986;18.208;2023-08-24T09:10:10;3.20;;;2.00;;
57303;SDS011;43150;50.986;18.208;2023-08-24T09:12:35;5.60;;;2.10;;
57303;SDS011;43150;50.986;18.208;2023-08-24T09:15:04;4.20;;;2.30;;
57303;SDS011;43150;50.986;18.208;2023-08-24T09:17:34;3.60;;;2.00;;
57303;SDS011;43150;50.986;18.208;2023-08-24T09:20:00;3.50;;;2.10;;
57303;SDS011;43150;50.986;18.208;2023-08-24T09:22:35;6.50;;;2.20;;
57303;SDS011;43150;50.986;18.208;2023-08-24T09:25:04;4.10;;;2.10;;
57303;SDS011;43150;50.986;18.208;2023-08-24T09:27:31;6.50;;;2.40;;
57303;SDS011;43150;50.986;18.208;2023-08-24T09:29:57;6.00;;;2.00;;
57303;SDS011;43150;50.986;18.208;2023-08-24T09:32:31;9.30;;;2.40;;
57303;SDS011;43150;50.986;18.208;2023-08-24T09:35:05;4.20;;;2.00;;
57303;SDS011;43150;50.986;18.208;2023-08-24T09:37:36;4.20;;;1.80;;
57303;SDS011;43150;50.986;18.208;2023-08-24T09:40:05;2.60;;;1.60;;
57303;SDS011;43150;50.986;18.208;2023-08-24T09:42:41;4.40;;;1.80;;
57303;SDS011;43150;50.986;18.208;2023-08-24T09:45:08;3.40;;;1.80;;
57303;SDS011;43150;50.986;18.208;2023-08-24T09:47:35;4.80;;;1.90;;
57303;SDS011;43150;50.986;18.208;2023-08-24T09:50:01;3.80;;;1.70;;
57303;SDS011;43150;50.986;18.208;2023-08-24T09:52:29;3.90;;;2.50;;
57303;SDS011;43150;50.986;18.208;2023-08-24T09:54:56;4.40;;;1.60;;
57303;SDS011;43150;50.986;18.208;2023-08-24T09:57:23;2.00;;;1.70;;
57303;SDS011;43150;50.986;18.208;2023-08-24T09:59:49;4.60;;;2.50;;
57303;SDS011;43150;50.986;18.208;2023-08-24T10:02:16;1.90;;;1.70;;
57303;SDS011;43150;50.986;18.208;2023-08-24T10:04:44;3.30;;;1.70;;
57303;SDS011;43150;50.986;18.208;2023-08-24T10:07:10;9.50;;;2.20;;
57303;SDS011;43150;50.986;18.208;2023-08-24T10:09:45;2.70;;;1.70;;
57303;SDS011;43150;50.986;18.208;2023-08-24T10:12:10;3.20;;;1.50;;
57303;SDS011;43150;50.986;18.208;2023-08-24T10:14:41;3.60;;;1.70;;
57303;SDS011;43150;50.986;18.208;2023-08-24T10:17:10;3.00;;;1.50;;
57303;SDS011;43150;50.986;18.208;2023-08-24T10:19:36;3.60;;;1.90;;
57303;SDS011;43150;50.986;18.208;2023-08-24T10:22:02;3.60;;;1.60;;
57303;SDS011;43150;50.986;18.208;2023-08-24T10:24:28;3.40;;;1.70;;
57303;SDS011;43150;50.986;18.208;2023-08-24T10:26:54;4.60;;;1.60;;
57303;SDS011;43150;50.986;18.208;2023-08-24T10:29:20;3.80;;;1.40;;
57303;SDS011;43150;50.986;18.208;2023-08-24T10:31:46;2.90;;;1.60;;
57303;SDS011;43150;50.986;18.208;2023-08-24T10:34:13;3.70;;;1.60;;
57303;SDS011;43150;50.986;18.208;2023-08-24T10:36:39;2.90;;;1.60;;
57303;SDS011;43150;50.986;18.208;2023-08-24T10:39:05;1.90;;;1.40;;
57303;SDS011;43150;50.986;18.208;2023-08-24T10:41:50;2.50;;;1.60;;
57303;SDS011;43150;50.986;18.208;2023-08-24T10:44:20;3.50;;;1.50;;
57303;SDS011;43150;50.986;18.208;2023-08-24T10:47:05;1.90;;;1.60;;
57303;SDS011;43150;50.986;18.208;2023-08-24T10:49:31;4.40;;;1.70;;
57303;SDS011;43150;50.986;18.208;2023-08-24T10:51:57;3.00;;;1.50;;
57303;SDS011;43150;50.986;18.208;2023-08-24T10:54:29;4.50;;;1.60;;
57303;SDS011;43150;50.986;18.208;2023-08-24T10:56:55;3.60;;;1.80;;
57303;SDS011;43150;50.986;18.208;2023-08-24T10:59:24;2.40;;;1.70;;
57303;SDS011;43150;50.986;18.208;2023-08-24T11:04:18;5.70;;;1.80;;
57303;SDS011;43150;50.986;18.208;2023-08-24T11:06:53;2.20;;;1.50;;
57303;SDS011;43150;50.986;18.208;2023-08-24T11:09:19;3.50;;;1.80;;
57303;SDS011;43150;50.986;18.208;2023-08-24T11:11:58;3.60;;;1.80;;
57303;SDS011;43150;50.986;18.208;2023-08-24T11:14:24;5.00;;;1.90;;
57303;SDS011;43150;50.986;18.208;2023-08-24T11:16:52;2.60;;;1.80;;
57303;SDS011;43150;50.986;18.208;2023-08-24T11:19:21;7.70;;;1.70;;
57303;SDS011;43150;50.986;18.208;2023-08-24T11:21:47;3.80;;;1.60;;
57303;SDS011;43150;50.986;18.208;2023-08-24T11:24:13;2.80;;;1.70;;
57303;SDS011;43150;50.986;18.208;2023-08-24T11:26:45;2.00;;;1.60;;
57303;SDS011;43150;50.986;18.208;2023-08-24T11:29:11;5.00;;;1.80;;
57303;SDS011;43150;50.986;18.208;2023-08-24T11:31:37;4.60;;;1.90;;
57303;SDS011;43150;50.986;18.208;2023-08-24T11:34:04;2.20;;;1.70;;
57303;SDS011;43150;50.986;18.208;2023-08-24T11:36:46;1.80;;;1.40;;
57303;SDS011;43150;50.986;18.208;2023-08-24T11:39:16;3.70;;;2.10;;
57303;SDS011;43150;50.986;18.208;2023-08-24T11:41:43;2.50;;;1.50;;
57303;SDS011;43150;50.986;18.208;2023-08-24T11:44:10;1.90;;;1.70;;
57303;SDS011;43150;50.986;18.208;2023-08-24T11:46:35;3.40;;;1.70;;
57303;SDS011;43150;50.986;18.208;2023-08-24T11:49:04;1.90;;;1.70;;
57303;SDS011;43150;50.986;18.208;2023-08-24T11:51:29;4.70;;;1.70;;
57303;SDS011;43150;50.986;18.208;2023-08-24T11:53:58;5.50;;;1.60;;
57303;SDS011;43150;50.986;18.208;2023-08-24T11:56:25;2.70;;;1.70;;
57303;SDS011;43150;50.986;18.208;2023-08-24T11:58:51;2.50;;;1.70;;
57303;SDS011;43150;50.986;18.208;2023-08-24T12:01:16;2.80;;;1.60;;
57303;SDS011;43150;50.986;18.208;2023-08-24T12:03:42;5.00;;;1.80;;
57303;SDS011;43150;50.986;18.208;2023-08-24T12:06:14;5.60;;;1.70;;
57303;SDS011;43150;50.986;18.208;2023-08-24T12:08:41;2.20;;;1.70;;
57303;SDS011;43150;50.986;18.208;2023-08-24T12:11:10;2.50;;;1.90;;
57303;SDS011;43150;50.986;18.208;2023-08-24T12:13:36;11.70;;;2.20;;
57303;SDS011;43150;50.986;18.208;2023-08-24T12:16:02;4.90;;;1.80;;
57303;SDS011;43150;50.986;18.208;2023-08-24T12:18:28;6.50;;;2.10;;
57303;SDS011;43150;50.986;18.208;2023-08-24T12:20:54;3.70;;;1.70;;
57303;SDS011;43150;50.986;18.208;2023-08-24T12:23:20;5.70;;;1.80;;
57303;SDS011;43150;50.986;18.208;2023-08-24T12:25:45;5.00;;;2.00;;
57303;SDS011;43150;50.986;18.208;2023-08-24T12:28:12;16.60;;;3.20;;
57303;SDS011;43150;50.986;18.208;2023-08-24T12:30:47;4.50;;;1.80;;
57303;SDS011;43150;50.986;18.208;2023-08-24T12:33:22;4.30;;;1.60;;
57303;SDS011;43150;50.986;18.208;2023-08-24T12:35:48;4.00;;;2.10;;
57303;SDS011;43150;50.986;18.208;2023-08-24T12:38:14;3.30;;;1.90;;
57303;SDS011;43150;50.986;18.208;2023-08-24T12:40:39;6.10;;;2.20;;
57303;SDS011;43150;50.986;18.208;2023-08-24T12:43:05;5.10;;;1.80;;
57303;SDS011;43150;50.986;18.208;2023-08-24T12:45:31;2.30;;;1.80;;
57303;SDS011;43150;50.986;18.208;2023-08-24T12:47:57;3.80;;;2.00;;
57303;SDS011;43150;50.986;18.208;2023-08-24T12:50:22;4.80;;;2.10;;
57303;SDS011;43150;50.986;18.208;2023-08-24T12:52:48;4.80;;;1.90;;
57303;SDS011;43150;50.986;18.208;2023-08-24T12:55:14;4.00;;;2.10;;
57303;SDS011;43150;50.986;18.208;2023-08-24T12:57:40;4.20;;;2.50;;
57303;SDS011;43150;50.986;18.208;2023-08-24T13:00:06;3.20;;;1.90;;
57303;SDS011;43150;50.986;18.208;2023-08-24T13:02:33;4.50;;;2.00;;
57303;SDS011;43150;50.986;18.208;2023-08-24T13:04:59;4.80;;;1.90;;
57303;SDS011;43150;50.986;18.208;2023-08-24T13:07:26;46.90;;;5.30;;
57303;SDS011;43150;50.986;18.208;2023-08-24T13:09:52;2.30;;;1.80;;
57303;SDS011;43150;50.986;18.208;2023-08-24T13:12:17;6.10;;;1.80;;
57303;SDS011;43150;50.986;18.208;2023-08-24T13:14:43;4.60;;;1.80;;
57303;SDS011;43150;50.986;18.208;2023-08-24T13:17:09;3.90;;;1.70;;
57303;SDS011;43150;50.986;18.208;2023-08-24T13:19:34;3.80;;;1.90;;
57303;SDS011;43150;50.986;18.208;2023-08-24T13:22:00;4.40;;;1.80;;
57303;SDS011;43150;50.986;18.208;2023-08-24T13:24:26;5.00;;;1.90;;
57303;SDS011;43150;50.986;18.208;2023-08-24T13:26:51;3.20;;;1.70;;
57303;SDS011;43150;50.986;18.208;2023-08-24T13:29:17;3.40;;;2.10;;
57303;SDS011;43150;50.986;18.208;2023-08-24T13:31:42;3.30;;;1.80;;
57303;SDS011;43150;50.986;18.208;2023-08-24T13:34:08;1.90;;;1.50;;
57303;SDS011;43150;50.986;18.208;2023-08-24T13:36:34;5.20;;;1.70;;
57303;SDS011;43150;50.986;18.208;2023-08-24T13:38:59;2.40;;;2.00;;
57303;SDS011;43150;50.986;18.208;2023-08-24T13:41:25;1.90;;;1.70;;
57303;SDS011;43150;50.986;18.208;2023-08-24T13:43:51;3.20;;;1.80;;
57303;SDS011;43150;50.986;18.208;2023-08-24T13:46:16;3.40;;;1.90;;
57303;SDS011;43150;50.986;18.208;2023-08-24T13:48:42;2.00;;;1.50;;
57303;SDS011;43150;50.986;18.208;2023-08-24T13:51:08;3.50;;;1.80;;
57303;SDS011;43150;50.986;18.208;2023-08-24T13:53:33;4.10;;;1.90;;
57303;SDS011;43150;50.986;18.208;2023-08-24T13:55:59;3.20;;;1.80;;
57303;SDS011;43150;50.986;18.208;2023-08-24T13:58:24;4.40;;;2.00;;
57303;SDS011;43150;50.986;18.208;2023-08-24T14:00:56;2.50;;;1.70;;
57303;SDS011;43150;50.986;18.208;2023-08-24T14:03:22;5.00;;;2.00;;
57303;SDS011;43150;50.986;18.208;2023-08-24T14:05:47;2.40;;;1.60;;
57303;SDS011;43150;50.986;18.208;2023-08-24T14:08:15;3.10;;;1.80;;
57303;SDS011;43150;50.986;18.208;2023-08-24T14:10:41;8.60;;;2.10;;
57303;SDS011;43150;50.986;18.208;2023-08-24T14:13:06;3.40;;;1.70;;
57303;SDS011;43150;50.986;18.208;2023-08-24T14:15:32;6.70;;;2.00;;
57303;SDS011;43150;50.986;18.208;2023-08-24T14:17:58;5.90;;;1.90;;
57303;SDS011;43150;50.986;18.208;2023-08-24T14:20:23;5.50;;;1.80;;
57303;SDS011;43150;50.986;18.208;2023-08-24T14:22:49;7.40;;;1.90;;
57303;SDS011;43150;50.986;18.208;2023-08-24T14:25:15;6.20;;;1.80;;
57303;SDS011;43150;50.986;18.208;2023-08-24T14:27:40;3.50;;;1.70;;
57303;SDS011;43150;50.986;18.208;2023-08-24T14:30:09;8.90;;;2.20;;
57303;SDS011;43150;50.986;18.208;2023-08-24T14:32:35;3.50;;;1.60;;